createdAt,value
2018-04-17T00:00:24.098Z,996.71
2018-04-17T00:01:24.080Z,996.71
2018-04-17T00:02:24.056Z,996.71
2018-04-17T00:03:24.037Z,996.69
2018-04-17T00:04:24.024Z,996.68
2018-04-17T00:05:24.001Z,996.65
2018-04-17T00:06:23.981Z,996.58
2018-04-17T00:07:23.956Z,996.57
2018-04-17T00:08:23.937Z,996.57
2018-04-17T00:09:23.924Z,996.58
2018-04-17T00:10:23.902Z,996.56
2018-04-17T00:11:23.877Z,996.55
2018-04-17T00:12:23.870Z,996.62
2018-04-17T00:13:23.839Z,996.56
2018-04-17T00:14:23.818Z,996.60
2018-04-17T00:15:23.797Z,996.59
2018-04-17T00:16:23.783Z,996.58
2018-04-17T00:17:23.774Z,996.58
2018-04-17T00:18:23.738Z,996.60
2018-04-17T00:19:23.744Z,996.58
2018-04-17T00:20:23.699Z,996.59
2018-04-17T00:21:23.676Z,996.61
2018-04-17T00:22:23.659Z,996.58
2018-04-17T00:23:23.641Z,996.60
2018-04-17T00:24:23.621Z,996.63
2018-04-17T00:25:23.610Z,996.61
2018-04-17T00:26:23.577Z,996.63
2018-04-17T00:27:23.556Z,996.63
2018-04-17T00:28:23.537Z,996.64
2018-04-17T00:29:23.520Z,996.65
2018-04-17T00:30:23.500Z,996.63
2018-04-17T00:31:23.475Z,996.62
2018-04-17T00:32:23.503Z,996.64
2018-04-17T00:33:23.436Z,996.63
2018-04-17T00:34:23.416Z,996.66
2018-04-17T00:35:23.397Z,996.63
2018-04-17T00:36:23.380Z,996.67
2018-04-17T00:37:23.355Z,996.68
2018-04-17T00:38:23.339Z,996.69
2018-04-17T00:39:23.313Z,996.67
2018-04-17T00:40:23.296Z,996.70
2018-04-17T00:41:23.273Z,996.74
2018-04-17T00:42:23.459Z,996.75
2018-04-17T00:43:23.255Z,996.78
2018-04-17T00:44:23.216Z,996.83
2018-04-17T00:45:23.194Z,996.85
2018-04-17T00:46:23.187Z,996.90
2018-04-17T00:47:23.190Z,996.90
2018-04-17T00:48:23.199Z,996.90
2018-04-17T00:49:23.207Z,996.92
2018-04-17T00:50:23.199Z,996.93
2018-04-17T00:51:23.194Z,996.96
2018-04-17T00:52:23.190Z,996.94
2018-04-17T00:53:23.158Z,996.98
2018-04-17T00:54:23.078Z,996.98
2018-04-17T00:55:23.003Z,996.99
2018-04-17T00:56:24.357Z,997.01
2018-04-17T00:57:22.954Z,997.03
2018-04-17T00:58:22.933Z,997.05
2018-04-17T00:59:22.913Z,997.05
2018-04-17T01:00:22.896Z,997.06
2018-04-17T01:01:22.871Z,997.06
2018-04-17T01:02:22.853Z,997.08
2018-04-17T01:03:22.835Z,997.10
2018-04-17T01:04:22.819Z,997.10
2018-04-17T01:05:22.793Z,997.10
2018-04-17T01:06:22.826Z,997.12
2018-04-17T01:07:22.752Z,997.10
2018-04-17T01:08:22.757Z,997.14
2018-04-17T01:09:22.709Z,997.15
2018-04-17T01:10:22.698Z,997.13
2018-04-17T01:11:22.682Z,997.14
2018-04-17T01:12:22.646Z,997.13
2018-04-17T01:13:22.638Z,997.15
2018-04-17T01:14:22.609Z,997.15
2018-04-17T01:15:22.592Z,997.18
2018-04-17T01:16:22.572Z,997.18
2018-04-17T01:17:23.506Z,997.18
2018-04-17T01:18:22.532Z,997.20
2018-04-17T01:19:22.509Z,997.24
2018-04-17T01:20:22.493Z,997.26
2018-04-17T01:21:22.472Z,997.26
2018-04-17T01:22:22.449Z,997.27
2018-04-17T01:23:22.434Z,997.29
2018-04-17T01:24:22.407Z,997.29
2018-04-17T01:25:22.392Z,997.30
2018-04-17T01:26:22.367Z,997.27
2018-04-17T01:27:22.346Z,997.33
2018-04-17T01:28:22.326Z,997.35
2018-04-17T01:29:22.307Z,997.33
2018-04-17T01:30:22.294Z,997.33
2018-04-17T01:31:22.267Z,997.32
2018-04-17T01:32:22.259Z,997.33
2018-04-17T01:33:22.236Z,997.34
2018-04-17T01:34:22.217Z,997.33
2018-04-17T01:35:22.183Z,997.37
2018-04-17T01:36:22.168Z,997.39
2018-04-17T01:37:22.163Z,997.37
2018-04-17T01:38:22.554Z,997.40
2018-04-17T01:39:22.101Z,997.40
2018-04-17T01:40:22.086Z,997.40
2018-04-17T01:41:22.065Z,997.40
2018-04-17T01:42:22.042Z,997.36
2018-04-17T01:43:22.038Z,997.39
2018-04-17T01:44:22.023Z,997.40
2018-04-17T01:45:21.982Z,997.41
2018-04-17T01:46:21.964Z,997.42
2018-04-17T01:47:21.945Z,997.45
2018-04-17T01:48:21.921Z,997.49
2018-04-17T01:49:21.937Z,997.47
2018-04-17T01:50:21.941Z,997.51
2018-04-17T01:51:21.864Z,997.46
2018-04-17T01:52:21.847Z,997.50
2018-04-17T01:53:21.840Z,997.46
2018-04-17T01:54:21.797Z,997.46
2018-04-17T01:55:21.779Z,997.50
2018-04-17T01:56:21.762Z,997.51
2018-04-17T01:57:21.748Z,997.50
2018-04-17T01:58:21.718Z,997.54
2018-04-17T01:59:21.725Z,997.54
2018-04-17T02:00:21.685Z,997.62
2018-04-17T02:01:21.663Z,997.60
2018-04-17T02:02:21.639Z,997.62
2018-04-17T02:03:21.634Z,997.64
2018-04-17T02:04:21.597Z,997.64
2018-04-17T02:05:21.575Z,997.68
2018-04-17T02:06:21.557Z,997.69
2018-04-17T02:07:21.540Z,997.76
2018-04-17T02:08:21.515Z,997.76
2018-04-17T02:09:21.492Z,997.79
2018-04-17T02:10:21.473Z,997.81
2018-04-17T02:11:21.452Z,997.79
2018-04-17T02:12:21.434Z,997.81
2018-04-17T02:13:21.420Z,997.84
2018-04-17T02:14:21.391Z,997.86
2018-04-17T02:15:21.382Z,997.88
2018-04-17T02:16:21.347Z,997.89
2018-04-17T02:17:21.332Z,997.89
2018-04-17T02:18:21.309Z,997.91
2018-04-17T02:19:21.295Z,997.88
2018-04-17T02:20:21.276Z,997.91
2018-04-17T02:21:21.277Z,997.97
2018-04-17T02:22:21.275Z,997.99
2018-04-17T02:23:21.286Z,997.97
2018-04-17T02:24:21.277Z,998.00
2018-04-17T02:25:21.285Z,998.02
2018-04-17T02:26:21.263Z,998.02
2018-04-17T02:27:21.178Z,998.04
2018-04-17T02:28:21.168Z,998.03
2018-04-17T02:29:21.079Z,998.06
2018-04-17T02:30:21.057Z,998.05
2018-04-17T02:31:21.071Z,998.03
2018-04-17T02:32:21.084Z,998.03
2018-04-17T02:33:20.997Z,998.06
2018-04-17T02:34:20.976Z,998.08
2018-04-17T02:35:20.953Z,998.08
2018-04-17T02:36:20.934Z,998.12
2018-04-17T02:37:20.919Z,998.11
2018-04-17T02:38:20.890Z,998.11
2018-04-17T02:39:20.871Z,998.09
2018-04-17T02:40:20.848Z,998.07
2018-04-17T02:41:20.832Z,998.11
2018-04-17T02:42:20.808Z,998.09
2018-04-17T02:43:20.787Z,998.13
2018-04-17T02:44:20.768Z,998.13
2018-04-17T02:45:20.745Z,998.13
2018-04-17T02:46:20.732Z,998.17
2018-04-17T02:47:20.709Z,998.18
2018-04-17T02:48:20.681Z,998.20
2018-04-17T02:49:20.661Z,998.21
2018-04-17T02:50:20.649Z,998.22
2018-04-17T02:51:20.622Z,998.25
2018-04-17T02:52:20.604Z,998.25
2018-04-17T02:53:20.583Z,998.26
2018-04-17T02:54:20.584Z,998.26
2018-04-17T02:55:20.539Z,998.30
2018-04-17T02:56:20.517Z,998.28
2018-04-17T02:57:20.502Z,998.30
2018-04-17T02:58:20.476Z,998.31
2018-04-17T02:59:20.455Z,998.33
2018-04-17T03:00:20.433Z,998.33
2018-04-17T03:01:20.415Z,998.37
2018-04-17T03:02:20.390Z,998.34
2018-04-17T03:03:20.373Z,998.35
2018-04-17T03:04:20.350Z,998.38
2018-04-17T03:05:20.331Z,998.38
2018-04-17T03:06:20.313Z,998.43
2018-04-17T03:07:20.290Z,998.41
2018-04-17T03:08:20.265Z,998.45
2018-04-17T03:09:20.248Z,998.45
2018-04-17T03:10:20.232Z,998.49
2018-04-17T03:11:20.205Z,998.48
2018-04-17T03:12:20.373Z,998.52
2018-04-17T03:13:20.169Z,998.50
2018-04-17T03:14:20.156Z,998.52
2018-04-17T03:15:20.122Z,998.51
2018-04-17T03:16:20.102Z,998.49
2018-04-17T03:17:20.078Z,998.53
2018-04-17T03:18:20.066Z,998.53
2018-04-17T03:19:20.039Z,998.52
2018-04-17T03:20:20.018Z,998.52
2018-04-17T03:21:19.997Z,998.52
2018-04-17T03:22:19.975Z,998.50
2018-04-17T03:23:19.957Z,998.51
2018-04-17T03:24:19.938Z,998.54
2018-04-17T03:25:19.921Z,998.56
2018-04-17T03:26:19.899Z,998.56
2018-04-17T03:27:19.869Z,998.58
2018-04-17T03:28:19.853Z,998.54
2018-04-17T03:29:19.831Z,998.58
2018-04-17T03:30:19.813Z,998.56
2018-04-17T03:31:19.785Z,998.61
2018-04-17T03:32:19.765Z,998.61
2018-04-17T03:33:19.747Z,998.57
2018-04-17T03:34:19.741Z,998.63
2018-04-17T03:35:19.709Z,998.62
2018-04-17T03:36:19.683Z,998.62
2018-04-17T03:37:19.664Z,998.66
2018-04-17T03:38:19.696Z,998.65
2018-04-17T03:39:19.619Z,998.63
2018-04-17T03:40:19.598Z,998.66
2018-04-17T03:41:19.584Z,998.64
2018-04-17T03:42:19.615Z,998.66
2018-04-17T03:43:19.536Z,998.64
2018-04-17T03:44:19.521Z,998.66
2018-04-17T03:45:19.493Z,998.67
2018-04-17T03:46:19.473Z,998.69
2018-04-17T03:47:19.447Z,998.69
2018-04-17T03:48:19.438Z,998.71
2018-04-17T03:49:19.409Z,998.74
2018-04-17T03:50:19.389Z,998.70
2018-04-17T03:51:19.373Z,998.72
2018-04-17T03:52:19.404Z,998.70
2018-04-17T03:53:19.356Z,998.71
2018-04-17T03:54:19.352Z,998.73
2018-04-17T03:55:19.385Z,998.74
2018-04-17T03:56:19.356Z,998.77
2018-04-17T03:57:19.367Z,998.80
2018-04-17T03:58:19.394Z,998.80
2018-04-17T03:59:19.278Z,998.80
2018-04-17T04:00:19.254Z,998.84
2018-04-17T04:01:19.155Z,998.83
2018-04-17T04:02:19.139Z,998.84
2018-04-17T04:03:19.115Z,998.87
2018-04-17T04:04:19.096Z,998.83
2018-04-17T04:05:19.077Z,998.84
2018-04-17T04:06:19.058Z,998.84
2018-04-17T04:07:19.039Z,998.83
2018-04-17T04:08:19.012Z,998.86
2018-04-17T04:09:18.987Z,998.82
2018-04-17T04:10:18.969Z,998.85
2018-04-17T04:11:18.943Z,998.85
2018-04-17T04:12:18.928Z,998.89
2018-04-17T04:13:18.905Z,998.91
2018-04-17T04:14:18.884Z,998.92
2018-04-17T04:15:18.870Z,998.93
2018-04-17T04:16:18.840Z,998.95
2018-04-17T04:17:18.890Z,999.00
2018-04-17T04:18:18.800Z,999.01
2018-04-17T04:19:18.780Z,999.01
2018-04-17T04:20:18.766Z,999.03
2018-04-17T04:21:18.735Z,999.06
2018-04-17T04:22:18.716Z,999.06
2018-04-17T04:23:18.697Z,999.08
2018-04-17T04:24:18.673Z,999.09
2018-04-17T04:25:18.650Z,999.10
2018-04-17T04:26:18.632Z,999.10
2018-04-17T04:27:18.648Z,999.11
2018-04-17T04:28:18.585Z,999.13
2018-04-17T04:29:18.567Z,999.14
2018-04-17T04:30:18.546Z,999.17
2018-04-17T04:31:18.522Z,999.21
2018-04-17T04:32:18.511Z,999.24
2018-04-17T04:33:18.484Z,999.29
2018-04-17T04:34:18.461Z,999.33
2018-04-17T04:35:18.436Z,999.35
2018-04-17T04:36:18.429Z,999.29
2018-04-17T04:37:18.398Z,999.32
2018-04-17T04:38:18.427Z,999.32
2018-04-17T04:39:18.355Z,999.27
2018-04-17T04:40:18.335Z,999.30
2018-04-17T04:41:18.312Z,999.33
2018-04-17T04:42:18.296Z,999.36
2018-04-17T04:43:18.275Z,999.41
2018-04-17T04:44:18.254Z,999.44
2018-04-17T04:45:18.232Z,999.46
2018-04-17T04:46:18.206Z,999.49
2018-04-17T04:47:18.194Z,999.44
2018-04-17T04:48:18.168Z,999.48
2018-04-17T04:49:18.147Z,999.47
2018-04-17T04:50:18.131Z,999.50
2018-04-17T04:51:18.105Z,999.52
2018-04-17T04:52:18.082Z,999.60
2018-04-17T04:53:18.055Z,999.58
2018-04-17T04:54:18.043Z,999.58
2018-04-17T04:55:19.155Z,999.60
2018-04-17T04:56:18.026Z,999.56
2018-04-17T04:57:17.985Z,999.64
2018-04-17T04:58:17.972Z,999.66
2018-04-17T04:59:17.932Z,999.67
2018-04-17T05:00:17.913Z,999.65
2018-04-17T05:01:17.897Z,999.70
2018-04-17T05:02:17.886Z,999.68
2018-04-17T05:03:17.847Z,999.69
2018-04-17T05:04:17.832Z,999.67
2018-04-17T05:05:17.805Z,999.69
2018-04-17T05:06:17.784Z,999.72
2018-04-17T05:07:17.761Z,999.73
2018-04-17T05:08:17.744Z,999.77
2018-04-17T05:09:17.718Z,999.76
2018-04-17T05:10:17.699Z,999.79
2018-04-17T05:11:17.675Z,999.77
2018-04-17T05:12:17.654Z,999.73
2018-04-17T05:13:17.635Z,999.75
2018-04-17T05:14:17.613Z,999.74
2018-04-17T05:15:17.597Z,999.76
2018-04-17T05:16:18.790Z,999.78
2018-04-17T05:17:17.547Z,999.82
2018-04-17T05:18:17.526Z,999.85
2018-04-17T05:19:17.558Z,999.90
2018-04-17T05:20:17.482Z,999.97
2018-04-17T05:21:17.463Z,999.99
2018-04-17T05:22:17.449Z,1000.01
2018-04-17T05:23:17.466Z,1000.06
2018-04-17T05:24:17.453Z,1000.07
2018-04-17T05:25:17.449Z,1000.10
2018-04-17T05:26:17.450Z,1000.14
2018-04-17T05:27:17.448Z,1000.17
2018-04-17T05:28:17.425Z,1000.20
2018-04-17T05:29:17.352Z,1000.22
2018-04-17T05:30:17.351Z,1000.26
2018-04-17T05:31:17.248Z,1000.28
2018-04-17T05:32:17.235Z,1000.25
2018-04-17T05:33:17.209Z,1000.27
2018-04-17T05:34:17.247Z,1000.26
2018-04-17T05:35:17.160Z,1000.27
2018-04-17T05:36:17.137Z,1000.29
2018-04-17T05:37:17.996Z,1000.30
2018-04-17T05:38:17.097Z,1000.27
2018-04-17T05:39:17.080Z,1000.30
2018-04-17T05:40:17.053Z,1000.33
2018-04-17T05:41:17.032Z,1000.38
2018-04-17T05:42:17.009Z,1000.39
2018-04-17T05:43:16.988Z,1000.36
2018-04-17T05:44:16.977Z,1000.41
2018-04-17T05:45:16.948Z,1000.43
2018-04-17T05:46:16.933Z,1000.47
2018-04-17T05:47:16.904Z,1000.48
2018-04-17T05:48:16.884Z,1000.49
2018-04-17T05:49:16.886Z,1000.52
2018-04-17T05:50:16.885Z,1000.51
2018-04-17T05:51:16.826Z,1000.56
2018-04-17T05:52:16.797Z,1000.57
2018-04-17T05:53:16.791Z,1000.61
2018-04-17T05:54:16.759Z,1000.59
2018-04-17T05:55:16.732Z,1000.56
2018-04-17T05:56:16.720Z,1000.63
2018-04-17T05:57:16.692Z,1000.64
2018-04-17T05:58:18.049Z,1000.61
2018-04-17T05:59:16.656Z,1000.67
2018-04-17T06:00:16.674Z,1000.66
2018-04-17T06:01:16.606Z,1000.64
2018-04-17T06:02:16.588Z,1000.65
2018-04-17T06:03:16.565Z,1000.64
2018-04-17T06:05:51.583Z,1000.62
2018-04-17T06:06:51.377Z,1000.63
2018-04-17T06:07:51.295Z,1000.65
2018-04-17T06:08:51.272Z,1000.67
2018-04-17T06:09:51.265Z,1000.70
2018-04-17T06:10:51.239Z,1000.74
2018-04-17T06:11:51.209Z,1000.77
2018-04-17T06:12:51.200Z,1000.76
2018-04-17T06:13:51.167Z,1000.81
2018-04-17T06:14:51.143Z,1000.78
2018-04-17T06:15:51.127Z,1000.79
2018-04-17T06:16:51.105Z,1000.75
2018-04-17T06:17:51.083Z,1000.78
2018-04-17T06:18:51.068Z,1000.79
2018-04-17T06:19:51.037Z,1000.82
2018-04-17T06:20:51.019Z,1000.84
2018-04-17T06:21:50.998Z,1000.85
2018-04-17T06:22:50.996Z,1000.91
2018-04-17T06:23:50.953Z,1000.87
2018-04-17T06:24:50.935Z,1000.96
2018-04-17T06:25:50.916Z,1000.98
2018-04-17T06:26:50.899Z,1000.97
2018-04-17T06:27:50.871Z,1001.00
2018-04-17T06:28:50.860Z,1001.03
2018-04-17T06:29:50.836Z,1001.03
2018-04-17T06:30:50.808Z,1001.05
2018-04-17T06:31:50.787Z,1001.06
2018-04-17T06:32:50.768Z,1001.10
2018-04-17T06:33:50.745Z,1001.13
2018-04-17T06:34:50.777Z,1001.14
2018-04-17T06:37:26.457Z,1001.15
2018-04-17T06:38:25.406Z,1001.17
2018-04-17T06:40:21.608Z,1001.19
2018-04-17T06:41:21.411Z,1001.23
2018-04-17T06:43:14.899Z,1001.26
2018-04-17T06:44:14.807Z,1001.27
2018-04-17T06:46:10.830Z,1001.30
2018-04-17T06:47:10.655Z,1001.30
2018-04-17T06:49:06.729Z,1001.32
2018-04-17T06:50:06.596Z,1001.34
2018-04-17T06:52:02.674Z,1001.33
2018-04-17T06:53:02.556Z,1001.33
2018-04-17T06:54:59.764Z,1001.37
2018-04-17T06:55:59.511Z,1001.40
2018-04-17T06:57:55.649Z,1001.39
2018-04-17T06:58:55.511Z,1001.36
2018-04-17T07:00:51.620Z,1001.35
2018-04-17T07:01:51.517Z,1001.38
2018-04-17T07:02:52.638Z,1001.41
2018-04-17T07:03:51.346Z,1001.44
2018-04-17T07:04:51.320Z,1001.47
2018-04-17T07:05:51.299Z,1001.53
2018-04-17T07:06:51.279Z,1001.54
2018-04-17T07:07:51.255Z,1001.58
2018-04-17T07:08:51.235Z,1001.60
2018-04-17T07:09:51.224Z,1001.59
2018-04-17T07:10:51.193Z,1001.57
2018-04-17T07:11:51.176Z,1001.56
2018-04-17T07:12:51.153Z,1001.58
2018-04-17T07:13:51.131Z,1001.58
2018-04-17T07:14:51.109Z,1001.60
2018-04-17T07:15:51.094Z,1001.59
2018-04-17T07:16:51.072Z,1001.59
2018-04-17T07:17:51.054Z,1001.63
2018-04-17T07:18:51.045Z,1001.63
2018-04-17T07:19:51.008Z,1001.70
2018-04-17T07:20:50.993Z,1001.70
2018-04-17T07:21:50.971Z,1001.68
2018-04-17T07:22:50.947Z,1001.73
2018-04-17T07:23:51.760Z,1001.71
2018-04-17T07:24:50.901Z,1001.77
2018-04-17T07:25:50.920Z,1001.82
2018-04-17T07:26:50.909Z,1001.83
2018-04-17T07:27:50.850Z,1001.86
2018-04-17T07:28:50.821Z,1001.91
2018-04-17T07:29:50.799Z,1001.90
2018-04-17T07:31:26.293Z,1001.98
2018-04-17T07:31:50.758Z,1001.96
2018-04-17T07:32:50.752Z,1001.96
2018-04-17T07:33:50.724Z,1001.95
2018-04-17T07:34:50.699Z,1001.97
2018-04-17T07:35:50.670Z,1002.02
2018-04-17T07:36:50.665Z,1002.05
2018-04-17T07:37:50.630Z,1002.06
2018-04-17T07:38:50.644Z,1002.11
2018-04-17T07:39:50.590Z,1002.16
2018-04-17T07:40:50.567Z,1002.19
2018-04-17T07:41:50.548Z,1002.19
2018-04-17T07:42:50.524Z,1002.21
2018-04-17T07:43:50.506Z,1002.21
2018-04-17T07:44:50.793Z,1002.19
2018-04-17T07:45:50.463Z,1002.14
2018-04-17T07:46:50.441Z,1002.15
2018-04-17T07:47:50.424Z,1002.13
2018-04-17T07:48:50.407Z,1002.13
2018-04-17T07:49:50.384Z,1002.13
2018-04-17T07:50:50.357Z,1002.16
2018-04-17T07:51:50.392Z,1002.17
2018-04-17T07:52:50.322Z,1002.20
2018-04-17T07:53:50.296Z,1002.17
2018-04-17T07:54:50.275Z,1002.21
2018-04-17T07:55:50.259Z,1002.24
2018-04-17T07:56:50.252Z,1002.23
2018-04-17T07:57:50.212Z,1002.26
2018-04-17T07:58:50.213Z,1002.27
2018-04-17T07:59:50.169Z,1002.25
2018-04-17T08:00:50.154Z,1002.27
2018-04-17T08:01:50.130Z,1002.30
2018-04-17T08:02:50.107Z,1002.31
2018-04-17T08:03:50.089Z,1002.35
2018-04-17T08:04:50.065Z,1002.33
2018-04-17T08:05:50.048Z,1002.35
2018-04-17T08:06:50.029Z,1002.32
2018-04-17T08:07:50.009Z,1002.34
2018-04-17T08:08:50.039Z,1002.35
2018-04-17T08:09:49.974Z,1002.35
2018-04-17T08:10:49.942Z,1002.40
2018-04-17T08:11:49.959Z,1002.40
2018-04-17T08:12:49.901Z,1002.40
2018-04-17T08:13:49.878Z,1002.39
2018-04-17T08:14:49.857Z,1002.38
2018-04-17T08:15:49.840Z,1002.39
2018-04-17T08:16:49.823Z,1002.42
2018-04-17T08:17:49.796Z,1002.40
2018-04-17T08:18:49.784Z,1002.43
2018-04-17T08:19:49.753Z,1002.44
2018-04-17T08:20:49.737Z,1002.41
2018-04-17T08:21:49.718Z,1002.42
2018-04-17T08:22:49.694Z,1002.43
2018-04-17T08:23:49.672Z,1002.42
2018-04-17T08:24:49.650Z,1002.44
2018-04-17T08:25:49.628Z,1002.43
2018-04-17T08:26:49.615Z,1002.41
2018-04-17T08:27:49.692Z,1002.40
2018-04-17T08:28:49.619Z,1002.45
2018-04-17T08:29:49.618Z,1002.40
2018-04-17T08:30:49.622Z,1002.41
2018-04-17T08:31:49.638Z,1002.43
2018-04-17T08:32:49.596Z,1002.40
2018-04-17T08:33:49.577Z,1002.43
2018-04-17T08:34:49.557Z,1002.41
2018-04-17T08:35:49.427Z,1002.43
2018-04-17T08:36:49.460Z,1002.42
2018-04-17T08:37:49.378Z,1002.41
2018-04-17T08:38:49.371Z,1002.41
2018-04-17T08:39:49.354Z,1002.41
2018-04-17T08:40:49.348Z,1002.39
2018-04-17T08:41:49.303Z,1002.43
2018-04-17T08:42:49.313Z,1002.43
2018-04-17T08:43:49.256Z,1002.42
2018-04-17T08:44:49.237Z,1002.42
2018-04-17T08:45:49.220Z,1002.40
2018-04-17T08:46:49.200Z,1002.43
2018-04-17T08:47:49.177Z,1002.43
2018-04-17T08:48:49.155Z,1002.43
2018-04-17T08:49:49.187Z,1002.43
2018-04-17T08:50:49.131Z,1002.50
2018-04-17T08:51:49.096Z,1002.46
2018-04-17T08:52:49.071Z,1002.50
2018-04-17T08:53:49.050Z,1002.49
2018-04-17T08:54:49.032Z,1002.45
2018-04-17T08:55:49.014Z,1002.46
2018-04-17T08:56:48.988Z,1002.50
2018-04-17T08:57:48.968Z,1002.47
2018-04-17T08:58:48.947Z,1002.48
2018-04-17T08:59:48.947Z,1002.50
2018-04-17T09:00:48.909Z,1002.51
2018-04-17T09:01:48.885Z,1002.53
2018-04-17T09:02:48.867Z,1002.55
2018-04-17T09:03:48.846Z,1002.52
2018-04-17T09:04:48.830Z,1002.47
2018-04-17T09:05:48.801Z,1002.45
2018-04-17T09:06:48.785Z,1002.44
2018-04-17T09:07:48.778Z,1002.47
2018-04-17T09:08:48.741Z,1002.45
2018-04-17T09:09:48.722Z,1002.46
2018-04-17T09:10:48.701Z,1002.49
2018-04-17T09:11:48.734Z,1002.50
2018-04-17T09:12:48.659Z,1002.50
2018-04-17T09:13:48.640Z,1002.49
2018-04-17T09:14:48.622Z,1002.53
2018-04-17T09:15:48.598Z,1002.50
2018-04-17T09:16:48.577Z,1002.50
2018-04-17T09:17:48.554Z,1002.48
2018-04-17T09:18:48.537Z,1002.52
2018-04-17T09:19:48.529Z,1002.52
2018-04-17T09:20:48.493Z,1002.51
2018-04-17T09:21:48.474Z,1002.54
2018-04-17T09:22:48.451Z,1002.51
2018-04-17T09:23:48.432Z,1002.54
2018-04-17T09:24:48.413Z,1002.52
2018-04-17T09:25:48.390Z,1002.60
2018-04-17T09:26:48.369Z,1002.57
2018-04-17T09:27:48.350Z,1002.58
2018-04-17T09:28:48.331Z,1002.60
2018-04-17T09:29:48.304Z,1002.62
2018-04-17T09:30:48.283Z,1002.64
2018-04-17T09:31:48.265Z,1002.62
2018-04-17T09:32:48.286Z,1002.62
2018-04-17T09:33:48.272Z,1002.67
2018-04-17T09:34:48.200Z,1002.65
2018-04-17T09:35:48.182Z,1002.64
2018-04-17T09:36:48.161Z,1002.67
2018-04-17T09:37:48.138Z,1002.68
2018-04-17T09:38:48.118Z,1002.67
2018-04-17T09:39:48.098Z,1002.70
2018-04-17T09:40:48.079Z,1002.70
2018-04-17T09:41:48.059Z,1002.72
2018-04-17T09:42:48.047Z,1002.77
2018-04-17T09:43:48.014Z,1002.76
2018-04-17T09:44:47.994Z,1002.77
2018-04-17T09:45:48.008Z,1002.77
2018-04-17T09:46:47.957Z,1002.77
2018-04-17T09:47:47.930Z,1002.76
2018-04-17T09:48:47.907Z,1002.75
2018-04-17T09:49:47.886Z,1002.76
2018-04-17T09:50:47.869Z,1002.78
2018-04-17T09:51:47.846Z,1002.80
2018-04-17T09:52:47.829Z,1002.78
2018-04-17T09:53:47.804Z,1002.77
2018-04-17T09:54:47.799Z,1002.76
2018-04-17T09:55:47.779Z,1002.79
2018-04-17T09:56:47.744Z,1002.76
2018-04-17T09:57:47.726Z,1002.78
2018-04-17T09:58:47.708Z,1002.82
2018-04-17T09:59:47.702Z,1002.83
2018-04-17T10:00:47.716Z,1002.81
2018-04-17T10:01:47.750Z,1002.79
2018-04-17T10:02:47.713Z,1002.81
2018-04-17T10:03:47.711Z,1002.79
2018-04-17T10:04:47.717Z,1002.77
2018-04-17T10:05:47.685Z,1002.76
2018-04-17T10:06:47.612Z,1002.74
2018-04-17T10:07:47.596Z,1002.76
2018-04-17T10:08:47.537Z,1002.75
2018-04-17T10:09:47.478Z,1002.72
2018-04-17T10:10:47.462Z,1002.72
2018-04-17T10:11:47.442Z,1002.69
2018-04-17T10:12:47.417Z,1002.70
2018-04-17T10:13:47.398Z,1002.71
2018-04-17T10:14:47.375Z,1002.70
2018-04-17T10:15:47.397Z,1002.69
2018-04-17T10:16:47.335Z,1002.71
2018-04-17T10:17:47.317Z,1002.70
2018-04-17T10:18:47.292Z,1002.72
2018-04-17T10:19:48.466Z,1002.72
2018-04-17T10:20:47.269Z,1002.71
2018-04-17T10:21:47.236Z,1002.73
2018-04-17T10:22:47.215Z,1002.77
2018-04-17T10:23:47.205Z,1002.72
2018-04-17T10:24:47.173Z,1002.75
2018-04-17T10:25:47.154Z,1002.71
2018-04-17T10:26:47.135Z,1002.74
2018-04-17T10:27:47.116Z,1002.75
2018-04-17T10:28:47.093Z,1002.79
2018-04-17T10:29:47.108Z,1002.80
2018-04-17T10:30:47.057Z,1002.78
2018-04-17T10:33:22.293Z,1002.77
2018-04-17T10:34:21.774Z,1002.78
2018-04-17T10:35:21.741Z,1002.76
2018-04-17T10:36:21.740Z,1002.72
2018-04-17T10:37:21.738Z,1002.74
2018-04-17T10:38:21.733Z,1002.69
2018-04-17T10:39:21.740Z,1002.68
2018-04-17T10:40:21.718Z,1002.71
2018-04-17T10:41:21.646Z,1002.70
2018-04-17T10:42:21.641Z,1002.70
2018-04-17T10:43:21.538Z,1002.71
2018-04-17T10:44:21.515Z,1002.75
2018-04-17T10:45:21.500Z,1002.71
2018-04-17T10:46:21.482Z,1002.72
2018-04-17T10:47:21.501Z,1002.72
2018-04-17T10:48:21.494Z,1002.72
2018-04-17T10:49:21.417Z,1002.69
2018-04-17T10:50:21.409Z,1002.70
2018-04-17T10:51:21.380Z,1002.68
2018-04-17T10:52:21.360Z,1002.69
2018-04-17T10:53:21.343Z,1002.70
2018-04-17T10:54:21.317Z,1002.71
2018-04-17T10:55:21.302Z,1002.67
2018-04-17T10:56:21.281Z,1002.65
2018-04-17T10:57:21.280Z,1002.66
2018-04-17T10:58:21.241Z,1002.64
2018-04-17T10:59:21.220Z,1002.65
2018-04-17T11:00:21.205Z,1002.65
2018-04-17T11:01:21.180Z,1002.67
2018-04-17T11:02:21.167Z,1002.66
2018-04-17T11:03:21.180Z,1002.64
2018-04-17T11:04:21.128Z,1002.63
2018-04-17T11:05:21.102Z,1002.59
2018-04-17T11:06:21.085Z,1002.65
2018-04-17T11:07:21.065Z,1002.66
2018-04-17T11:08:21.054Z,1002.64
2018-04-17T11:09:21.028Z,1002.60
2018-04-17T11:10:21.018Z,1002.59
2018-04-17T11:11:20.992Z,1002.57
2018-04-17T11:12:20.971Z,1002.59
2018-04-17T11:13:20.960Z,1002.56
2018-04-17T11:14:20.937Z,1002.58
2018-04-17T11:15:20.916Z,1002.64
2018-04-17T11:16:20.905Z,1002.58
2018-04-17T11:17:20.885Z,1002.59
2018-04-17T11:18:20.865Z,1002.59
2018-04-17T11:19:20.847Z,1002.62
2018-04-17T11:20:20.830Z,1002.58
2018-04-17T11:21:20.819Z,1002.61
2018-04-17T11:22:20.798Z,1002.58
2018-04-17T11:23:20.778Z,1002.58
2018-04-17T11:24:20.764Z,1002.57
2018-04-17T11:25:20.750Z,1002.57
2018-04-17T11:26:20.732Z,1002.58
2018-04-17T11:27:20.717Z,1002.57
2018-04-17T11:28:20.699Z,1002.59
2018-04-17T11:29:20.686Z,1002.58
2018-04-17T11:30:20.673Z,1002.56
2018-04-17T11:31:20.656Z,1002.55
2018-04-17T11:32:20.639Z,1002.51
2018-04-17T11:33:20.657Z,1002.58
2018-04-17T11:34:20.616Z,1002.51
2018-04-17T11:35:20.595Z,1002.56
2018-04-17T11:36:20.643Z,1002.54
2018-04-17T11:37:20.572Z,1002.50
2018-04-17T11:38:20.552Z,1002.49
2018-04-17T11:39:20.537Z,1002.48
2018-04-17T11:40:20.522Z,1002.50
2018-04-17T11:41:20.515Z,1002.53
2018-04-17T11:42:20.512Z,1002.55
2018-04-17T11:43:20.481Z,1002.57
2018-04-17T11:44:20.468Z,1002.55
2018-04-17T11:45:21.394Z,1002.54
2018-04-17T11:46:20.442Z,1002.56
2018-04-17T11:47:20.427Z,1002.58
2018-04-17T11:48:20.420Z,1002.61
2018-04-17T11:49:20.406Z,1002.98
2018-04-17T11:50:20.386Z,1003.15
2018-04-17T11:51:20.376Z,1003.22
2018-04-17T11:52:20.380Z,1003.31
2018-04-17T11:53:20.344Z,1003.36
2018-04-17T11:54:20.332Z,1003.28
2018-04-17T11:55:20.325Z,1003.29
2018-04-17T11:56:20.303Z,1003.24
2018-04-17T11:57:20.297Z,1003.08
2018-04-17T11:58:20.276Z,1003.15
2018-04-17T11:59:20.262Z,1003.27
2018-04-17T12:00:20.248Z,1003.28
2018-04-17T12:01:20.245Z,1003.30
2018-04-17T12:02:20.266Z,1003.24
2018-04-17T12:03:20.247Z,1003.21
2018-04-17T12:04:20.192Z,1003.11
2018-04-17T12:05:20.187Z,1003.11
2018-04-17T12:06:20.560Z,1003.27
2018-04-17T12:07:20.149Z,1003.31
2018-04-17T12:08:20.133Z,1003.32
2018-04-17T12:09:20.123Z,1003.30
2018-04-17T12:10:20.104Z,1003.28
2018-04-17T12:11:20.127Z,1003.27
2018-04-17T12:12:20.076Z,1003.18
2018-04-17T12:13:20.063Z,1003.22
2018-04-17T12:14:20.048Z,1003.20
2018-04-17T12:15:20.038Z,1003.05
2018-04-17T12:16:20.018Z,1002.74
2018-04-17T12:17:20.000Z,1002.68
2018-04-17T12:18:19.987Z,1002.70
2018-04-17T12:19:19.968Z,1002.65
2018-04-17T12:20:20.006Z,1002.58
2018-04-17T12:21:19.944Z,1002.52
2018-04-17T12:22:19.919Z,1002.54
2018-04-17T12:23:19.908Z,1002.63
2018-04-17T12:24:19.893Z,1002.57
2018-04-17T12:25:19.878Z,1002.52
2018-04-17T12:26:19.860Z,1002.51
2018-04-17T12:27:19.842Z,1002.46